Time;durP1;ratioP1;P1;durP2;ratioP2;P2;SDS_P1;SDS_P2;PMS_P1;PMS_P2;Temp;Humidity;BMP_temperature;BMP_pressure;BME280_temperature;BME280_humidity;BME280_pressure;Samples;Min_cycle;Max_cycle;Signal;HPM_P1;HPM_P2
2023/04/26 00:00:27;;;;;;;11.48;3.75;;;8.70;61.90;;;;;;5043094;28;20040;-66
2023/04/26 00:02:54;;;;;;;8.30;4.18;;;8.70;62.00;;;;;;5036033;28;20036;-66
2023/04/26 00:05:20;;;;;;;8.70;3.55;;;8.70;62.10;;;;;;5033406;28;20048;-66
2023/04/26 00:07:46;;;;;;;10.27;3.83;;;8.60;62.20;;;;;;5034056;28;20431;-67
2023/04/26 00:10:11;;;;;;;9.13;4.15;;;8.60;62.30;;;;;;5033631;28;20033;-66
2023/04/26 00:12:39;;;;;;;10.50;4.53;;;8.60;62.40;;;;;;5032308;28;20159;-67
2023/04/26 00:15:06;;;;;;;10.02;4.75;;;8.50;62.50;;;;;;5015116;28;20100;-66
2023/04/26 00:17:32;;;;;;;9.15;4.45;;;8.50;62.60;;;;;;5033235;28;20095;-66
2023/04/26 00:19:58;;;;;;;12.23;4.00;;;8.50;62.70;;;;;;5015381;28;20121;-66
2023/04/26 00:22:24;;;;;;;8.27;4.03;;;8.50;62.80;;;;;;5030130;28;20152;-66
2023/04/26 00:24:50;;;;;;;8.68;3.58;;;8.40;62.90;;;;;;5006042;28;20150;-66
2023/04/26 00:27:16;;;;;;;12.00;4.40;;;8.40;63.00;;;;;;5038211;28;20025;-66
2023/04/26 00:29:42;;;;;;;10.45;4.25;;;8.40;63.10;;;;;;5042032;28;20056;-66
2023/04/26 00:32:08;;;;;;;10.65;4.03;;;8.40;63.20;;;;;;5034214;28;20458;-66
2023/04/26 00:34:37;;;;;;;10.35;4.25;;;8.40;63.30;;;;;;5037831;28;20377;-66
2023/04/26 00:37:04;;;;;;;12.00;4.45;;;8.30;63.40;;;;;;5039948;28;20021;-66
2023/04/26 00:39:30;;;;;;;10.35;4.60;;;8.30;63.40;;;;;;5045205;28;20033;-66
2023/04/26 00:41:56;;;;;;;11.80;4.43;;;8.30;63.50;;;;;;5037810;28;20055;-66
2023/04/26 00:44:22;;;;;;;10.00;4.68;;;8.30;63.60;;;;;;5040002;28;20033;-66
2023/04/26 00:46:50;;;;;;;11.27;5.40;;;8.30;63.60;;;;;;5037216;28;20025;-67
2023/04/26 00:49:20;;;;;;;10.10;4.10;;;8.20;63.60;;;;;;5038998;28;20111;-67
2023/04/26 00:51:48;;;;;;;14.70;4.88;;;8.20;63.70;;;;;;5022496;28;20044;-66
2023/04/26 00:54:15;;;;;;;13.05;4.40;;;8.20;63.80;;;;;;5032350;28;20024;-67
2023/04/26 00:56:42;;;;;;;8.43;4.50;;;8.20;63.80;;;;;;5041420;28;20079;-67
2023/04/26 00:59:07;;;;;;;11.13;4.63;;;8.20;63.80;;;;;;5048598;28;20079;-66
2023/04/26 01:01:34;;;;;;;12.52;4.97;;;8.20;63.90;;;;;;5043184;28;20037;-66
2023/04/26 01:04:02;;;;;;;11.95;4.97;;;8.20;64.00;;;;;;5025225;28;20376;-66
2023/04/26 01:06:32;;;;;;;12.60;4.88;;;8.20;64.10;;;;;;5031496;28;20037;-66
2023/04/26 01:09:03;;;;;;;9.70;4.47;;;8.10;64.10;;;;;;5052871;28;20032;-67
2023/04/26 01:11:31;;;;;;;10.52;4.57;;;8.10;64.20;;;;;;5025290;28;20036;-66
2023/04/26 01:13:57;;;;;;;9.30;4.75;;;8.10;64.20;;;;;;5030726;28;20453;-66
2023/04/26 01:16:23;;;;;;;12.13;4.30;;;8.10;64.20;;;;;;5041426;28;20099;-66
2023/04/26 01:18:53;;;;;;;8.38;4.25;;;8.00;64.30;;;;;;5055765;28;20029;-66
2023/04/26 01:21:23;;;;;;;10.02;5.05;;;8.00;64.50;;;;;;5042079;28;20115;-66
2023/04/26 01:23:50;;;;;;;9.82;4.43;;;8.00;64.50;;;;;;5044406;28;20041;-66
2023/04/26 01:26:16;;;;;;;10.90;4.57;;;8.00;64.60;;;;;;5038515;28;20134;-66
2023/04/26 01:28:42;;;;;;;9.73;4.68;;;8.00;64.60;;;;;;5055577;28;20025;-66
2023/04/26 01:31:08;;;;;;;10.32;4.80;;;8.00;64.60;;;;;;5043936;28;20040;-66
2023/04/26 01:33:33;;;;;;;10.55;4.80;;;8.00;64.70;;;;;;5047664;28;20017;-66
2023/04/26 01:35:59;;;;;;;10.90;5.05;;;8.00;64.70;;;;;;5037685;28;20052;-66
2023/04/26 01:38:25;;;;;;;11.85;4.88;;;7.90;64.70;;;;;;5037004;28;20013;-66
2023/04/26 01:40:53;;;;;;;11.52;4.50;;;8.00;64.80;;;;;;5047306;28;20108;-66
2023/04/26 01:43:20;;;;;;;10.90;4.53;;;7.90;64.80;;;;;;5047898;28;20422;-66
2023/04/26 01:45:48;;;;;;;11.35;5.07;;;7.90;64.80;;;;;;5026165;28;20061;-66
2023/04/26 01:48:31;;;;;;;10.98;4.80;;;7.90;64.90;;;;;;5042964;28;20028;-66
2023/04/26 01:50:59;;;;;;;9.43;4.95;;;7.90;64.90;;;;;;5038623;28;20022;-66
2023/04/26 01:53:25;;;;;;;12.48;5.00;;;7.90;65.00;;;;;;5052327;28;20061;-66
2023/04/26 01:55:51;;;;;;;12.32;4.65;;;7.90;65.00;;;;;;5037239;28;20037;-66
2023/04/26 01:58:17;;;;;;;11.57;4.85;;;7.90;65.10;;;;;;5048590;28;20040;-66
2023/04/26 02:00:42;;;;;;;9.73;5.05;;;7.90;65.10;;;;;;5025056;28;20033;-66
2023/04/26 02:03:10;;;;;;;10.32;4.82;;;7.80;65.20;;;;;;5046668;28;20037;-66
2023/04/26 02:05:35;;;;;;;10.80;5.60;;;7.80;65.30;;;;;;5045083;28;20108;-66
2023/04/26 02:08:05;;;;;;;9.57;5.07;;;7.80;65.30;;;;;;5042442;28;20075;-66
2023/04/26 02:10:30;;;;;;;13.63;6.03;;;7.90;65.50;;;;;;5056366;28;20112;-66
2023/04/26 02:12:56;;;;;;;12.18;5.72;;;7.80;65.50;;;;;;5045702;28;20108;-66
2023/04/26 02:15:22;;;;;;;10.07;5.15;;;7.80;65.50;;;;;;5053086;28;20108;-66
2023/04/26 02:17:48;;;;;;;10.52;5.38;;;7.80;65.60;;;;;;5039298;28;20071;-66
2023/04/26 02:20:14;;;;;;;10.20;4.95;;;7.80;65.70;;;;;;5043727;28;20041;-66
2023/04/26 02:22:40;;;;;;;11.60;5.18;;;7.80;65.70;;;;;;5031311;28;20029;-66
2023/04/26 02:25:06;;;;;;;11.35;5.80;;;7.80;65.80;;;;;;5051328;28;20033;-65
2023/04/26 02:27:32;;;;;;;14.88;5.30;;;7.80;65.80;;;;;;5043755;28;20036;-66
2023/04/26 02:29:59;;;;;;;10.75;5.28;;;7.70;65.80;;;;;;5052521;28;20029;-66
2023/04/26 02:32:25;;;;;;;10.77;5.28;;;7.70;65.90;;;;;;5046110;28;20032;-66
2023/04/26 02:34:51;;;;;;;13.05;5.47;;;7.70;66.00;;;;;;5024330;28;20100;-65
2023/04/26 02:37:16;;;;;;;11.15;5.35;;;7.70;66.10;;;;;;5049571;28;20068;-66
2023/04/26 02:39:43;;;;;;;12.68;5.18;;;7.60;66.10;;;;;;5021196;28;20514;-65
2023/04/26 02:42:09;;;;;;;11.88;5.25;;;7.60;66.10;;;;;;5051720;28;20116;-66
2023/04/26 02:44:36;;;;;;;12.25;5.57;;;7.60;66.20;;;;;;5027814;28;20029;-65
2023/04/26 02:47:02;;;;;;;9.05;4.60;;;7.60;66.30;;;;;;5043408;28;20035;-66
2023/04/26 02:49:28;;;;;;;11.15;5.60;;;7.60;67.00;;;;;;5026305;28;20021;-65
2023/04/26 02:51:54;;;;;;;10.40;5.30;;;7.60;66.40;;;;;;5048421;28;20029;-65
2023/04/26 02:54:19;;;;;;;11.55;5.07;;;7.60;66.50;;;;;;5041206;28;20509;-66
2023/04/26 02:56:46;;;;;;;11.88;5.95;;;7.60;66.60;;;;;;5049107;28;20025;-66
2023/04/26 02:59:12;;;;;;;9.68;5.78;;;7.60;66.60;;;;;;5025340;28;20017;-65
2023/04/26 03:01:37;;;;;;;10.45;5.70;;;7.50;66.70;;;;;;5047931;28;20041;-66
2023/04/26 03:04:04;;;;;;;11.57;5.72;;;7.50;66.70;;;;;;5045458;28;20329;-65
2023/04/26 03:06:30;;;;;;;9.32;5.30;;;7.50;66.80;;;;;;5047921;28;20025;-66
2023/04/26 03:08:55;;;;;;;11.68;5.50;;;7.50;66.90;;;;;;5046685;28;20036;-66
2023/04/26 03:11:21;;;;;;;11.18;5.60;;;7.50;66.90;;;;;;5047595;28;20029;-66
2023/04/26 03:13:47;;;;;;;11.25;6.07;;;7.40;66.90;;;;;;5029583;28;20075;-66
2023/04/26 03:16:13;;;;;;;10.55;5.38;;;7.40;67.00;;;;;;5026276;28;20347;-66
2023/04/26 03:18:39;;;;;;;10.48;5.18;;;7.40;67.10;;;;;;5039774;28;20447;-66
2023/04/26 03:21:07;;;;;;;12.32;5.85;;;7.40;67.20;;;;;;5032583;28;20068;-66
2023/04/26 03:23:33;;;;;;;10.52;6.15;;;7.40;67.30;;;;;;5031035;28;20110;-66
2023/04/26 03:25:59;;;;;;;12.57;5.78;;;7.40;67.30;;;;;;5030699;28;20114;-66
2023/04/26 03:28:25;;;;;;;12.70;6.22;;;7.40;67.40;;;;;;5031962;28;20447;-65
2023/04/26 03:30:50;;;;;;;10.63;5.35;;;7.40;67.50;;;;;;5001868;28;20022;-65
2023/04/26 03:33:16;;;;;;;11.48;5.95;;;7.40;67.50;;;;;;5031212;28;20022;-66
2023/04/26 03:35:42;;;;;;;10.60;5.80;;;7.40;67.60;;;;;;5004378;28;20120;-65
2023/04/26 03:38:08;;;;;;;11.88;5.97;;;7.40;67.70;;;;;;5031585;28;20349;-65
2023/04/26 03:40:34;;;;;;;14.23;6.10;;;7.30;67.70;;;;;;5028963;28;20030;-65
2023/04/26 03:43:00;;;;;;;14.02;6.95;;;7.30;67.80;;;;;;4997236;28;20017;-65
2023/04/26 03:45:35;;;;;;;12.05;5.97;;;7.30;67.90;;;;;;5103750;27;20413;-65
2023/04/26 03:48:01;;;;;;;13.80;6.50;;;7.30;67.90;;;;;;5061304;28;20326;-65
2023/04/26 03:50:27;;;;;;;13.48;6.07;;;7.30;68.00;;;;;;5101498;28;20078;-66
2023/04/26 03:52:53;;;;;;;12.57;6.78;;;7.30;68.00;;;;;;5061471;28;20021;-66
2023/04/26 03:55:19;;;;;;;13.13;6.80;;;7.20;68.00;;;;;;5065460;28;20112;-65
2023/04/26 03:57:45;;;;;;;11.48;7.10;;;7.20;68.10;;;;;;5063103;28;20110;-66
2023/04/26 04:00:12;;;;;;;13.77;7.15;;;7.20;68.20;;;;;;5048176;28;20032;-65
2023/04/26 04:02:41;;;;;;;16.38;7.50;;;7.20;68.30;;;;;;5063523;28;20032;-65
2023/04/26 04:05:10;;;;;;;13.48;7.22;;;7.20;69.00;;;;;;5062315;28;20038;-65
2023/04/26 04:07:36;;;;;;;14.68;7.18;;;7.20;68.40;;;;;;5096929;28;20032;-66
2023/04/26 04:10:03;;;;;;;11.25;6.45;;;7.20;68.40;;;;;;5061486;28;20023;-65
2023/04/26 04:12:28;;;;;;;14.40;7.43;;;7.20;68.50;;;;;;5087934;28;20369;-65
2023/04/26 04:14:54;;;;;;;14.48;7.40;;;7.20;68.60;;;;;;5057752;28;20028;-66
2023/04/26 04:17:21;;;;;;;14.25;7.13;;;7.10;68.60;;;;;;5069232;28;20086;-66
2023/04/26 04:19:47;;;;;;;13.00;7.07;;;7.20;68.70;;;;;;5054810;28;20033;-66
2023/04/26 04:22:12;;;;;;;13.45;7.07;;;7.20;68.80;;;;;;5083934;28;20056;-65
2023/04/26 04:24:39;;;;;;;14.05;7.70;;;7.20;68.80;;;;;;5061541;28;20076;-65
2023/04/26 04:27:05;;;;;;;13.55;7.75;;;7.10;68.80;;;;;;5053673;28;20028;-66
2023/04/26 04:29:31;;;;;;;15.75;7.03;;;7.20;68.90;;;;;;5061118;28;20021;-66
2023/04/26 04:31:57;;;;;;;17.20;7.93;;;7.20;68.90;;;;;;5073172;28;20032;-65
2023/04/26 04:34:23;;;;;;;15.73;7.85;;;7.10;68.90;;;;;;5064935;28;20025;-66
2023/04/26 04:36:52;;;;;;;15.43;8.20;;;7.20;69.00;;;;;;5074487;28;20330;-65
2023/04/26 04:39:18;;;;;;;15.98;8.40;;;7.20;69.10;;;;;;5071580;28;20620;-65
2023/04/26 04:41:47;;;;;;;16.00;7.80;;;7.20;69.10;;;;;;5078248;28;20028;-65
2023/04/26 04:44:15;;;;;;;18.50;8.48;;;7.10;69.10;;;;;;5072403;28;20059;-65
2023/04/26 04:46:42;;;;;;;16.67;8.82;;;7.20;69.20;;;;;;5078557;28;20043;-66
2023/04/26 04:49:08;;;;;;;15.65;8.32;;;7.20;69.20;;;;;;5075322;28;20183;-65
2023/04/26 04:51:34;;;;;;;14.88;8.38;;;7.20;69.20;;;;;;5097011;28;20431;-66
2023/04/26 04:54:10;;;;;;;16.20;8.77;;;7.20;69.20;;;;;;5070577;28;20044;-65
2023/04/26 04:56:35;;;;;;;19.73;8.95;;;7.20;69.20;;;;;;5063092;28;20043;-66
2023/04/26 04:59:01;;;;;;;15.70;7.97;;;7.20;69.20;;;;;;5058465;28;20021;-66
2023/04/26 05:01:27;;;;;;;14.68;8.50;;;7.20;69.20;;;;;;5047511;28;20024;-66
2023/04/26 05:03:56;;;;;;;15.30;7.95;;;7.20;69.30;;;;;;5055624;28;20494;-66
2023/04/26 05:06:23;;;;;;;15.07;8.05;;;7.20;69.30;;;;;;5058942;28;20083;-67
2023/04/26 05:08:49;;;;;;;15.15;8.43;;;7.30;69.30;;;;;;5073970;28;20029;-67
2023/04/26 05:11:15;;;;;;;16.67;8.00;;;7.30;69.30;;;;;;5057785;28;20119;-67
2023/04/26 05:13:41;;;;;;;15.90;8.35;;;7.30;69.30;;;;;;5077141;28;20391;-66
2023/04/26 05:16:06;;;;;;;13.38;7.72;;;7.40;69.40;;;;;;5058572;28;20030;-67
2023/04/26 05:18:32;;;;;;;17.75;8.90;;;7.40;69.30;;;;;;5063569;28;20056;-67
2023/04/26 05:20:58;;;;;;;15.63;8.52;;;7.40;69.40;;;;;;5057282;28;20315;-66
2023/04/26 05:23:25;;;;;;;17.05;8.98;;;7.50;69.40;;;;;;5074931;28;20032;-67
2023/04/26 05:25:51;;;;;;;15.77;9.32;;;7.50;69.40;;;;;;5057970;28;20078;-67
2023/04/26 05:28:37;;;;;;;15.95;8.85;;;7.60;69.40;;;;;;5054329;28;20106;-68
2023/04/26 05:31:20;;;;;;;15.57;9.02;;;8.10;69.00;;;;;;5070939;28;20020;-67
2023/04/26 05:34:07;;;;;;;14.50;7.93;;;8.90;67.50;;;;;;5042947;28;20039;-67
2023/04/26 05:36:37;;;;;;;12.83;7.87;;;9.80;65.90;;;;;;5058458;28;20024;-67
2023/04/26 05:39:04;;;;;;;14.70;8.00;;;10.40;64.70;;;;;;5057341;28;20600;-65
2023/04/26 05:41:31;;;;;;;13.48;8.05;;;11.20;63.40;;;;;;5045156;28;20035;-68
2023/04/26 05:43:56;;;;;;;12.18;7.53;;;11.90;62.00;;;;;;5036156;28;20453;-66
2023/04/26 05:46:22;;;;;;;13.60;7.50;;;12.40;60.80;;;;;;5054715;28;20382;-67
2023/04/26 05:48:48;;;;;;;14.07;7.20;;;12.60;60.00;;;;;;5056145;28;20573;-66
2023/04/26 05:51:14;;;;;;;12.10;6.75;;;12.60;59.70;;;;;;5058050;28;20380;-66
2023/04/26 05:53:40;;;;;;;14.15;7.47;;;12.50;59.70;;;;;;5057679;28;20024;-66
2023/04/26 05:56:07;;;;;;;15.45;7.05;;;12.60;59.50;;;;;;5056999;28;20032;-66
2023/04/26 05:58:33;;;;;;;12.88;6.55;;;12.80;59.00;;;;;;5022450;28;20028;-66
2023/04/26 06:01:00;;;;;;;12.90;7.13;;;12.90;58.50;;;;;;5052629;28;20449;-67
2023/04/26 06:03:25;;;;;;;11.82;6.25;;;12.90;58.10;;;;;;5054938;28;20037;-68
2023/04/26 06:05:52;;;;;;;11.32;5.85;;;13.30;57.70;;;;;;5056560;28;20028;-66
2023/04/26 06:08:20;;;;;;;13.40;5.80;;;13.80;56.70;;;;;;5045000;28;20022;-65
2023/04/26 06:10:50;;;;;;;11.82;5.60;;;14.10;55.80;;;;;;5044009;28;20390;-67
2023/04/26 06:13:15;;;;;;;9.70;5.20;;;14.10;55.70;;;;;;5039367;28;20021;-65
2023/04/26 06:15:42;;;;;;;10.13;5.32;;;13.90;56.00;;;;;;5055233;28;20021;-65
2023/04/26 06:18:09;;;;;;;13.40;5.93;;;13.60;56.40;;;;;;5065692;28;20021;-66
2023/04/26 06:20:35;;;;;;;10.90;5.43;;;13.40;56.70;;;;;;5051066;28;20188;-66
2023/04/26 06:23:01;;;;;;;12.48;5.68;;;13.20;57.10;;;;;;5055719;28;20024;-68
2023/04/26 06:25:28;;;;;;;10.15;5.63;;;13.10;57.10;;;;;;5071408;28;20021;-67
2023/04/26 06:27:53;;;;;;;10.90;5.60;;;13.10;57.20;;;;;;5078066;28;20103;-66
2023/04/26 06:30:20;;;;;;;12.57;5.93;;;13.00;57.10;;;;;;5067703;28;20370;-66
2023/04/26 06:32:47;;;;;;;10.20;5.57;;;13.10;57.10;;;;;;5060242;28;20147;-66
2023/04/26 06:35:13;;;;;;;9.60;4.93;;;13.10;57.00;;;;;;5039507;28;20409;-67
2023/04/26 06:37:39;;;;;;;9.68;5.32;;;13.10;56.80;;;;;;5079511;28;20060;-66
2023/04/26 06:40:06;;;;;;;10.70;5.38;;;13.10;56.70;;;;;;5063873;28;20028;-65
2023/04/26 06:42:32;;;;;;;10.20;4.72;;;13.00;56.60;;;;;;5043263;28;20445;-67
2023/04/26 06:45:17;;;;;;;12.55;5.43;;;12.90;56.60;;;;;;5050178;28;20102;-66
2023/04/26 06:47:44;;;;;;;10.85;5.30;;;12.70;56.70;;;;;;5054763;28;20029;-66
2023/04/26 06:50:10;;;;;;;12.60;5.18;;;12.60;56.90;;;;;;5064472;28;20029;-69
2023/04/26 06:52:36;;;;;;;11.55;4.97;;;12.40;57.20;;;;;;5074001;28;20029;-67
2023/04/26 06:55:02;;;;;;;10.02;5.05;;;12.20;57.50;;;;;;5080584;28;20112;-67
2023/04/26 06:57:28;;;;;;;11.35;5.18;;;12.10;57.70;;;;;;5056893;28;20024;-66
2023/04/26 06:59:54;;;;;;;14.43;5.53;;;12.10;57.90;;;;;;5073331;28;20043;-67
2023/04/26 07:02:22;;;;;;;9.98;4.60;;;12.20;57.90;;;;;;5067559;28;20044;-66
2023/04/26 07:04:47;;;;;;;10.38;4.85;;;12.10;57.80;;;;;;5074435;28;20107;-67
2023/04/26 07:07:17;;;;;;;10.20;4.68;;;12.20;57.70;;;;;;5074924;28;20012;-66
2023/04/26 07:09:43;;;;;;;11.27;4.95;;;12.20;57.60;;;;;;5055851;28;20035;-66
2023/04/26 07:12:12;;;;;;;9.65;4.40;;;12.30;57.50;;;;;;5074360;28;20021;-67
2023/04/26 07:14:40;;;;;;;9.10;3.92;;;12.30;57.20;;;;;;5074237;28;20036;-67
2023/04/26 07:17:09;;;;;;;11.30;4.40;;;12.50;57.00;;;;;;5056196;28;20484;-66
2023/04/26 07:19:35;;;;;;;12.10;4.03;;;12.50;57.20;;;;;;5072751;28;20101;-67
2023/04/26 07:22:02;;;;;;;10.70;3.53;;;12.60;56.50;;;;;;5074284;28;20425;-67
2023/04/26 07:24:28;;;;;;;11.05;3.92;;;12.70;56.20;;;;;;5056082;28;20097;-67
2023/04/26 07:26:53;;;;;;;9.70;3.45;;;12.80;56.10;;;;;;5039623;28;20032;-67
2023/04/26 07:29:19;;;;;;;9.73;3.85;;;12.90;56.00;;;;;;5073309;28;20019;-67
2023/04/26 07:31:45;;;;;;;12.13;3.88;;;12.90;55.90;;;;;;5089875;28;20475;-67
2023/04/26 07:34:11;;;;;;;8.52;3.97;;;13.00;55.70;;;;;;5074351;28;20024;-67
2023/04/26 07:36:38;;;;;;;10.27;4.15;;;13.10;55.50;;;;;;5059836;28;20113;-67
2023/04/26 07:39:08;;;;;;;8.40;3.20;;;13.00;55.20;;;;;;5056028;28;20029;-67
2023/04/26 07:41:34;;;;;;;9.30;3.38;;;13.00;55.00;;;;;;5071830;28;20024;-67
2023/04/26 07:44:01;;;;;;;6.85;3.03;;;13.00;54.90;;;;;;5074259;28;20426;-67
2023/04/26 07:46:27;;;;;;;9.40;3.60;;;13.00;54.80;;;;;;5073602;28;20036;-67
2023/04/26 07:48:53;;;;;;;8.02;2.95;;;13.00;54.80;;;;;;5073689;28;20166;-67
2023/04/26 07:51:18;;;;;;;8.57;2.72;;;13.00;54.70;;;;;;5072893;28;20397;-67
2023/04/26 07:53:44;;;;;;;7.25;2.60;;;12.90;54.40;;;;;;5055926;28;20028;-66
2023/04/26 07:56:10;;;;;;;8.95;2.60;;;12.90;54.50;;;;;;5089226;28;20039;-67
2023/04/26 07:58:37;;;;;;;9.20;2.55;;;12.80;54.40;;;;;;5073393;28;20407;-67
2023/04/26 08:01:04;;;;;;;8.05;3.05;;;12.70;54.40;;;;;;5055143;28;20303;-67
2023/04/26 08:03:30;;;;;;;6.25;2.63;;;12.70;54.50;;;;;;5056097;28;20036;-67
2023/04/26 08:05:57;;;;;;;8.43;3.00;;;12.60;54.40;;;;;;5073850;28;20024;-67
2023/04/26 08:08:26;;;;;;;9.77;2.58;;;12.50;54.30;;;;;;5056073;28;20029;-67
2023/04/26 08:10:52;;;;;;;8.38;3.28;;;12.40;54.40;;;;;;5054048;28;20020;-66
2023/04/26 08:13:18;;;;;;;7.22;2.45;;;12.40;54.50;;;;;;5072592;28;20029;-67
2023/04/26 08:15:44;;;;;;;9.35;2.67;;;12.30;54.50;;;;;;5073546;28;20425;-67
2023/04/26 08:18:10;;;;;;;7.50;2.50;;;12.30;54.60;;;;;;5055768;28;20020;-67
2023/04/26 08:20:37;;;;;;;7.03;2.60;;;12.30;54.60;;;;;;5071960;28;20034;-67
2023/04/26 08:23:03;;;;;;;9.25;2.75;;;12.20;54.50;;;;;;5072384;28;20114;-67
2023/04/26 08:25:29;;;;;;;9.27;3.15;;;12.10;54.40;;;;;;5039188;28;20041;-67
2023/04/26 08:27:55;;;;;;;7.53;2.63;;;12.00;54.50;;;;;;5073736;28;20020;-67
2023/04/26 08:30:21;;;;;;;7.18;2.63;;;11.90;54.60;;;;;;5073910;28;20400;-67
2023/04/26 08:32:47;;;;;;;5.88;2.35;;;11.90;54.70;;;;;;5058313;28;20151;-67
2023/04/26 08:35:13;;;;;;;8.65;2.55;;;11.90;54.60;;;;;;5071641;28;20029;-67
2023/04/26 08:37:39;;;;;;;5.65;2.58;;;12.00;54.50;;;;;;5069081;28;20134;-67
2023/04/26 08:40:08;;;;;;;5.68;2.20;;;12.00;54.30;;;;;;5059446;28;20112;-67
2023/04/26 08:42:40;;;;;;;7.15;2.40;;;12.10;54.20;;;;;;5075078;28;20052;-67
2023/04/26 08:45:07;;;;;;;6.95;1.98;;;12.40;53.80;;;;;;5074510;28;20040;-67
2023/04/26 08:47:46;;;;;;;6.85;2.30;;;12.80;53.40;;;;;;5077081;28;20024;-67
2023/04/26 08:50:13;;;;;;;6.10;1.98;;;13.00;52.70;;;;;;5059087;28;20025;-67
2023/04/26 08:52:40;;;;;;;8.88;2.90;;;13.00;52.50;;;;;;5058237;28;20035;-67
2023/04/26 08:55:11;;;;;;;6.93;2.17;;;13.10;52.40;;;;;;5076738;28;20035;-67
2023/04/26 08:57:39;;;;;;;5.97;2.08;;;13.00;52.20;;;;;;5077154;28;20037;-67
2023/04/26 09:00:12;;;;;;;7.88;2.20;;;12.80;52.50;;;;;;5059144;28;20445;-67
2023/04/26 09:02:42;;;;;;;8.00;2.70;;;12.60;52.80;;;;;;5057832;28;20520;-67
2023/04/26 09:05:09;;;;;;;6.72;2.47;;;12.50;53.10;;;;;;5058592;28;20106;-67
2023/04/26 09:07:41;;;;;;;8.02;2.10;;;12.30;53.30;;;;;;5090612;28;20139;-66
2023/04/26 09:10:08;;;;;;;;;;;12.20;53.50;;;;;;5077652;28;20024;-67
2023/04/26 09:12:33;;;;;;;8.02;2.53;;;12.10;53.80;;;;;;5057934;28;20020;-66
2023/04/26 09:15:00;;;;;;;7.88;2.40;;;12.00;53.90;;;;;;5058846;28;20057;-67
2023/04/26 09:17:31;;;;;;;7.20;2.60;;;11.90;53.80;;;;;;5057926;28;20048;-67
2023/04/26 09:19:58;;;;;;;6.15;2.30;;;11.90;53.80;;;;;;5058844;28;20136;-67
2023/04/26 09:22:28;;;;;;;8.27;2.83;;;11.90;53.80;;;;;;5092519;28;20190;-67
2023/04/26 09:24:54;;;;;;;7.60;2.30;;;11.80;53.60;;;;;;5068295;28;20052;-67
2023/04/26 09:27:20;;;;;;;8.27;2.40;;;11.90;53.60;;;;;;5058390;28;20496;-66
2023/04/26 09:30:05;;;;;;;5.75;2.70;;;12.00;53.50;;;;;;5075287;28;20369;-67
2023/04/26 09:32:44;;;;;;;5.68;2.65;;;12.20;53.00;;;;;;5058714;28;20116;-67
2023/04/26 09:35:37;;;;;;;7.00;2.60;;;12.60;52.30;;;;;;5070765;28;20021;-67
2023/04/26 09:38:08;;;;;;;6.63;2.40;;;12.70;51.90;;;;;;5052616;28;20032;-67
2023/04/26 09:40:48;;;;;;;7.03;2.42;;;12.60;51.90;;;;;;5076275;28;20040;-67
2023/04/26 09:43:20;;;;;;;6.95;2.13;;;12.50;51.90;;;;;;5071561;28;20025;-67
2023/04/26 09:45:57;;;;;;;9.88;2.47;;;12.50;51.90;;;;;;5091786;28;20059;-66
2023/04/26 09:48:29;;;;;;;5.50;2.00;;;12.40;51.70;;;;;;5056721;28;20017;-67
2023/04/26 09:50:57;;;;;;;6.78;2.20;;;12.40;51.90;;;;;;5074966;28;20047;-67
2023/04/26 09:53:38;;;;;;;6.28;2.15;;;12.30;52.00;;;;;;5075706;28;20058;-67
2023/04/26 09:56:12;;;;;;;6.43;2.22;;;12.20;52.10;;;;;;5075830;28;20033;-67
2023/04/26 09:58:50;;;;;;;6.72;2.30;;;12.20;52.30;;;;;;5057482;28;20056;-66
2023/04/26 10:01:18;;;;;;;5.75;2.35;;;12.10;52.50;;;;;;5081594;28;20457;-68
2023/04/26 10:03:45;;;;;;;5.35;1.85;;;12.00;52.60;;;;;;5075606;28;20112;-67
2023/04/26 10:06:14;;;;;;;6.35;2.00;;;12.00;52.70;;;;;;5057744;28;20028;-67
2023/04/26 10:08:40;;;;;;;8.98;2.47;;;11.90;52.70;;;;;;5091167;28;20036;-67
2023/04/26 10:11:07;;;;;;;5.18;2.05;;;11.90;52.90;;;;;;5040849;28;20024;-67
2023/04/26 10:13:33;;;;;;;6.68;2.17;;;11.80;53.00;;;;;;5072707;28;20027;-65
2023/04/26 10:16:00;;;;;;;5.88;2.08;;;11.80;53.20;;;;;;5061135;28;20036;-66
2023/04/26 10:18:30;;;;;;;6.63;2.25;;;11.80;53.30;;;;;;5061974;28;20032;-66
2023/04/26 10:21:10;;;;;;;6.00;2.25;;;11.80;53.40;;;;;;5074693;28;20107;-66
2023/04/26 10:23:36;;;;;;;7.05;2.42;;;11.80;53.40;;;;;;5060821;28;20016;-66
2023/04/26 10:26:02;;;;;;;5.47;2.30;;;11.90;53.40;;;;;;5066665;28;20145;-67
2023/04/26 10:28:40;;;;;;;7.35;2.20;;;11.90;53.40;;;;;;5076791;28;20109;-66
2023/04/26 10:31:06;;;;;;;6.72;2.25;;;12.00;53.30;;;;;;5057222;28;20115;-66
2023/04/26 10:33:33;;;;;;;5.70;2.28;;;12.00;53.20;;;;;;5067645;28;20442;-66
2023/04/26 10:36:10;;;;;;;6.20;2.58;;;12.10;53.10;;;;;;5057417;28;20394;-66
2023/04/26 10:38:41;;;;;;;6.07;2.47;;;12.10;52.80;;;;;;5074324;28;20056;-66
2023/04/26 10:41:30;;;;;;;4.97;2.03;;;12.20;52.80;;;;;;5072404;28;20029;-67
2023/04/26 10:43:58;;;;;;;8.02;2.67;;;12.30;52.50;;;;;;5087052;28;20070;-66
2023/04/26 10:46:38;;;;;;;6.80;2.47;;;12.30;52.40;;;;;;5068917;28;20040;-66
2023/04/26 10:49:14;;;;;;;5.65;2.25;;;12.40;52.30;;;;;;5074487;28;20024;-66
2023/04/26 10:51:40;;;;;;;8.30;3.17;;;12.40;52.30;;;;;;5067186;28;20028;-66
2023/04/26 10:54:06;;;;;;;6.57;2.63;;;12.40;52.40;;;;;;5069781;28;20094;-64
2023/04/26 10:56:35;;;;;;;6.55;2.60;;;12.40;52.30;;;;;;5078311;28;20047;-65
2023/04/26 10:59:18;;;;;;;6.07;2.47;;;12.50;52.30;;;;;;5064150;28;20356;-65
2023/04/26 11:01:45;;;;;;;7.75;2.67;;;12.50;52.20;;;;;;5084385;28;20029;-64
2023/04/26 11:04:11;;;;;;;8.32;2.90;;;12.50;52.20;;;;;;5069072;28;20029;-65
2023/04/26 11:06:46;;;;;;;6.63;1.98;;;12.50;52.00;;;;;;5072699;28;20630;-65
2023/04/26 11:09:41;;;;;;;6.78;2.38;;;12.50;51.90;;;;;;5067412;28;20062;-66
2023/04/26 11:12:11;;;;;;;5.55;2.50;;;12.50;51.70;;;;;;5071019;28;20372;-66
2023/04/26 11:14:38;;;;;;;5.57;1.75;;;12.40;51.70;;;;;;5071828;28;20025;-65
2023/04/26 11:17:05;;;;;;;5.18;2.00;;;12.40;51.80;;;;;;5071589;28;20100;-65
2023/04/26 11:19:31;;;;;;;9.32;2.50;;;12.40;51.70;;;;;;5065239;28;20059;-66
2023/04/26 11:22:01;;;;;;;6.40;2.38;;;12.30;51.60;;;;;;5068552;28;20028;-65
2023/04/26 11:24:30;;;;;;;8.40;2.42;;;12.30;51.60;;;;;;5070101;28;20029;-66
2023/04/26 11:26:57;;;;;;;7.28;2.42;;;12.30;51.60;;;;;;5071825;28;20115;-72
2023/04/26 11:29:23;;;;;;;6.38;2.40;;;12.30;51.60;;;;;;5069418;28;20116;-71
2023/04/26 11:31:53;;;;;;;5.95;2.10;;;12.30;51.60;;;;;;5058152;28;20029;-75
2023/04/26 11:34:33;;;;;;;5.80;2.05;;;12.50;51.70;;;;;;5060824;28;20061;-71
2023/04/26 11:37:00;;;;;;;6.30;2.80;;;12.50;51.70;;;;;;5061369;28;20035;-70
2023/04/26 11:39:26;;;;;;;5.50;2.10;;;12.60;51.60;;;;;;5060902;28;20071;-72
2023/04/26 11:42:11;;;;;;;7.15;2.25;;;12.60;51.40;;;;;;5070497;28;20127;-70
2023/04/26 11:44:38;;;;;;;3.88;2.00;;;12.60;51.10;;;;;;5056448;28;20404;-69
2023/04/26 11:47:08;;;;;;;5.43;1.92;;;12.60;50.90;;;;;;5060674;28;20041;-68
2023/04/26 11:49:37;;;;;;;6.15;2.20;;;12.70;50.60;;;;;;5066579;28;20030;-69
2023/04/26 11:52:04;;;;;;;7.30;2.25;;;12.60;50.50;;;;;;5058031;28;20116;-71
2023/04/26 11:54:31;;;;;;;6.47;2.35;;;12.70;50.40;;;;;;5075339;28;20403;-74
2023/04/26 11:56:58;;;;;;;5.85;2.20;;;12.70;50.20;;;;;;5058516;28;20024;-72
2023/04/26 11:59:25;;;;;;;5.20;1.95;;;12.70;50.10;;;;;;5066095;28;20025;-73
2023/04/26 12:01:52;;;;;;;8.27;2.15;;;12.70;50.00;;;;;;5065288;28;20350;-73
2023/04/26 12:04:18;;;;;;;6.10;2.20;;;12.70;49.90;;;;;;5067996;28;20531;-73
2023/04/26 12:06:45;;;;;;;4.72;1.70;;;12.70;49.90;;;;;;5075778;28;20086;-73
2023/04/26 12:09:12;;;;;;;6.22;2.03;;;12.70;49.80;;;;;;5076848;28;20163;-73
2023/04/26 12:11:38;;;;;;;6.78;2.08;;;12.80;49.80;;;;;;5076626;28;20035;-73
2023/04/26 12:14:06;;;;;;;5.40;1.98;;;13.00;49.80;;;;;;5075062;28;20468;-73
2023/04/26 12:16:35;;;;;;;5.85;2.00;;;13.30;49.60;;;;;;5077811;28;20020;-73
2023/04/26 12:19:04;;;;;;;6.28;2.42;;;13.50;49.20;;;;;;5077708;28;20104;-73
2023/04/26 12:21:40;;;;;;;6.32;2.30;;;13.60;49.00;;;;;;5076795;28;20033;-73
2023/04/26 12:24:06;;;;;;;7.20;2.40;;;13.70;48.80;;;;;;5076190;28;20032;-73
2023/04/26 12:26:44;;;;;;;6.75;2.05;;;13.70;48.80;;;;;;5076404;28;20037;-73
2023/04/26 12:29:10;;;;;;;7.78;2.75;;;13.80;48.50;;;;;;5077242;28;20017;-73
2023/04/26 12:31:36;;;;;;;5.93;2.13;;;13.80;48.30;;;;;;5077097;28;20352;-73
2023/04/26 12:34:02;;;;;;;6.40;2.30;;;13.70;48.30;;;;;;5058829;28;20024;-73
2023/04/26 12:36:27;;;;;;;8.63;2.50;;;13.70;48.30;;;;;;5063167;28;20396;-73
2023/04/26 12:38:53;;;;;;;7.20;2.65;;;13.60;48.30;;;;;;5077296;28;20037;-73
2023/04/26 12:41:19;;;;;;;6.75;2.38;;;13.60;48.40;;;;;;5077083;28;20036;-73
2023/04/26 12:43:45;;;;;;;5.25;2.33;;;13.60;48.50;;;;;;5058298;28;20043;-73
2023/04/26 12:46:10;;;;;;;4.95;2.35;;;13.60;48.50;;;;;;5076666;28;20166;-73
2023/04/26 12:48:36;;;;;;;6.68;2.67;;;13.60;48.50;;;;;;5076966;28;20052;-73